Time;durP1;ratioP1;P1;durP2;ratioP2;P2;SDS_P1;SDS_P2;PMS_P1;PMS_P2;Temp;Humidity;BMP_temperature;BMP_pressure;BME280_temperature;BME280_humidity;BME280_pressure;Samples;Min_cycle;Max_cycle;Signal;HPM_P1;HPM_P2
2024/02/18 00:01:36;;;;;;;17.33;12.60;;;11.00;99.90;;;;;;5033603;28;20442;-66
2024/02/18 00:04:01;;;;;;;18.03;12.07;;;11.00;99.90;;;;;;5034515;28;20432;-66
2024/02/18 00:06:27;;;;;;;17.40;11.83;;;11.00;99.90;;;;;;5033742;28;20452;-64
2024/02/18 00:08:53;;;;;;;15.50;11.70;;;11.00;99.90;;;;;;5033898;28;20207;-67
2024/02/18 00:11:19;;;;;;;19.47;11.40;;;11.00;99.90;;;;;;5034971;28;20186;-66
2024/02/18 00:13:45;;;;;;;17.23;12.37;;;11.00;99.90;;;;;;5034646;28;20425;-66
2024/02/18 00:16:11;;;;;;;17.83;11.70;;;11.00;99.90;;;;;;5033228;28;21234;-65
2024/02/18 00:18:36;;;;;;;16.07;11.50;;;11.00;99.90;;;;;;5035356;28;20421;-66
2024/02/18 00:21:03;;;;;;;16.73;11.80;;;11.00;99.90;;;;;;5033398;28;20178;-66
2024/02/18 00:23:28;;;;;;;16.77;10.90;;;11.00;99.90;;;;;;5034725;28;20408;-65
2024/02/18 00:25:55;;;;;;;16.40;10.70;;;11.00;99.90;;;;;;5033793;28;20475;-66
2024/02/18 00:28:20;;;;;;;12.63;10.43;;;11.00;99.90;;;;;;5034358;28;20181;-65
2024/02/18 00:30:49;;;;;;;14.97;11.00;;;11.10;99.90;;;;;;5032137;28;20497;-65
2024/02/18 00:33:15;;;;;;;16.10;10.00;;;11.00;99.90;;;;;;5034086;28;20428;-64
2024/02/18 00:35:41;;;;;;;13.77;9.83;;;11.00;99.90;;;;;;5033638;28;20843;-66
2024/02/18 00:38:07;;;;;;;14.00;9.53;;;11.00;99.90;;;;;;5033538;28;20420;-64
2024/02/18 00:40:32;;;;;;;17.20;9.10;;;11.00;99.90;;;;;;5034159;28;20542;-66
2024/02/18 00:42:58;;;;;;;12.30;9.50;;;11.00;99.90;;;;;;5034463;28;20193;-66
2024/02/18 00:45:24;;;;;;;15.77;10.00;;;11.00;99.90;;;;;;5033542;28;20184;-67
2024/02/18 00:47:49;;;;;;;12.43;9.20;;;11.00;99.90;;;;;;5033754;28;20186;-66
2024/02/18 00:50:15;;;;;;;12.47;8.63;;;11.00;99.90;;;;;;5032964;28;20267;-67
2024/02/18 00:52:41;;;;;;;10.10;7.70;;;11.00;99.90;;;;;;5033532;28;21026;-66
2024/02/18 00:55:07;;;;;;;12.30;8.63;;;11.10;99.90;;;;;;5031788;28;20435;-65
2024/02/18 00:57:33;;;;;;;10.30;7.60;;;11.00;99.90;;;;;;5030925;28;20215;-64
2024/02/18 00:59:59;;;;;;;14.03;8.60;;;11.00;99.90;;;;;;5033068;28;20428;-65
2024/02/18 01:02:29;;;;;;;15.00;8.40;;;11.10;99.90;;;;;;5033320;28;20607;-65
2024/02/18 01:04:56;;;;;;;12.97;7.40;;;11.10;99.90;;;;;;5032587;28;20429;-67
2024/02/18 01:07:22;;;;;;;11.13;7.67;;;11.10;99.90;;;;;;5032512;28;20420;-65
2024/02/18 01:09:49;;;;;;;9.10;6.30;;;11.10;99.90;;;;;;5033499;28;20463;-65
2024/02/18 01:12:17;;;;;;;8.37;7.07;;;11.10;99.90;;;;;;5032370;28;20966;-67
2024/02/18 01:14:44;;;;;;;11.17;6.70;;;11.10;99.90;;;;;;5033375;28;20453;-67
2024/02/18 01:17:10;;;;;;;9.50;6.50;;;11.10;99.90;;;;;;5032629;28;20420;-66
2024/02/18 01:19:38;;;;;;;9.83;6.83;;;11.10;99.90;;;;;;5033366;28;20487;-67
2024/02/18 01:22:04;;;;;;;13.10;6.37;;;11.10;99.90;;;;;;5032628;28;20978;-67
2024/02/18 01:24:30;;;;;;;8.13;6.50;;;11.10;99.90;;;;;;5033088;28;20432;-64
2024/02/18 01:26:56;;;;;;;9.67;5.80;;;11.10;99.90;;;;;;5031281;28;20301;-66
2024/02/18 01:29:22;;;;;;;10.17;6.20;;;11.10;99.90;;;;;;5031970;28;20210;-65
2024/02/18 01:31:48;;;;;;;11.40;6.40;;;11.10;99.90;;;;;;5031396;28;20193;-66
2024/02/18 01:34:14;;;;;;;6.60;5.40;;;11.10;99.90;;;;;;5032627;28;20430;-65
2024/02/18 01:36:40;;;;;;;8.43;6.30;;;11.10;99.90;;;;;;5032546;28;20959;-64
2024/02/18 01:39:07;;;;;;;7.70;6.00;;;11.10;99.90;;;;;;5032804;28;20182;-65
2024/02/18 01:41:33;;;;;;;12.93;6.50;;;11.10;99.90;;;;;;5030308;28;20539;-64
2024/02/18 01:43:59;;;;;;;10.93;5.73;;;11.10;99.90;;;;;;5032617;28;20930;-67
2024/02/18 01:46:25;;;;;;;10.10;5.90;;;11.10;99.90;;;;;;5031727;28;20443;-64
2024/02/18 01:48:51;;;;;;;8.93;5.87;;;11.10;99.90;;;;;;5031979;28;20491;-66
2024/02/18 01:51:18;;;;;;;9.77;5.43;;;11.10;99.90;;;;;;5030840;28;20519;-66
2024/02/18 01:53:44;;;;;;;10.13;5.03;;;11.10;99.90;;;;;;5032876;28;20978;-64
2024/02/18 01:56:11;;;;;;;8.50;5.73;;;11.10;99.90;;;;;;5031584;28;20941;-65
2024/02/18 01:58:38;;;;;;;8.90;5.90;;;11.10;99.90;;;;;;5032048;28;20452;-67
2024/02/18 02:01:05;;;;;;;7.43;5.50;;;11.10;99.90;;;;;;5031678;28;20428;-67
2024/02/18 02:03:32;;;;;;;6.03;5.20;;;11.10;99.90;;;;;;5032563;28;20433;-67
2024/02/18 02:06:00;;;;;;;10.17;5.60;;;11.10;99.90;;;;;;5031949;28;20465;-64
2024/02/18 02:08:26;;;;;;;5.80;4.83;;;11.10;99.90;;;;;;5031600;28;20946;-65
2024/02/18 02:10:52;;;;;;;8.20;4.70;;;11.10;99.90;;;;;;5031078;28;20433;-65
2024/02/18 02:13:18;;;;;;;10.93;5.80;;;11.10;99.90;;;;;;5029237;28;20483;-66
2024/02/18 02:15:45;;;;;;;9.47;5.67;;;11.10;99.90;;;;;;5031111;28;20421;-67
2024/02/18 02:18:11;;;;;;;7.03;5.10;;;11.00;99.90;;;;;;5031358;28;20188;-67
2024/02/18 02:20:37;;;;;;;10.47;5.80;;;11.00;99.90;;;;;;5031031;28;20868;-66
2024/02/18 02:23:04;;;;;;;9.00;6.50;;;11.00;99.90;;;;;;5031721;28;20425;-65
2024/02/18 02:25:29;;;;;;;7.43;6.00;;;11.00;99.90;;;;;;5031474;28;20197;-65
2024/02/18 02:27:58;;;;;;;8.53;5.57;;;10.90;99.90;;;;;;5031447;28;20437;-64
2024/02/18 02:30:24;;;;;;;11.27;6.07;;;10.90;99.90;;;;;;5029565;28;20206;-65
2024/02/18 02:32:49;;;;;;;6.87;5.60;;;10.90;99.90;;;;;;5030174;28;20431;-64
2024/02/18 02:35:15;;;;;;;8.10;5.50;;;10.90;99.90;;;;;;5030941;28;20265;-65
2024/02/18 02:37:41;;;;;;;8.33;5.50;;;10.90;99.90;;;;;;5030662;28;20192;-65
2024/02/18 02:40:08;;;;;;;8.30;5.67;;;10.90;99.90;;;;;;5031157;28;21065;-64
2024/02/18 02:42:33;;;;;;;7.23;5.53;;;10.90;99.90;;;;;;5030218;28;20273;-67
2024/02/18 02:44:59;;;;;;;7.67;6.03;;;10.90;99.90;;;;;;5031797;28;20435;-65
2024/02/18 02:47:25;;;;;;;9.13;6.30;;;10.80;99.90;;;;;;5030104;28;20202;-67
2024/02/18 02:49:50;;;;;;;12.20;6.30;;;10.80;99.90;;;;;;5031939;28;20264;-65
2024/02/18 02:52:16;;;;;;;9.10;6.20;;;10.70;99.90;;;;;;5030298;28;20207;-65
2024/02/18 02:54:42;;;;;;;10.80;6.40;;;10.70;99.90;;;;;;5031939;28;20178;-65
2024/02/18 02:57:07;;;;;;;11.20;6.40;;;10.70;99.90;;;;;;5029364;28;20185;-67
2024/02/18 02:59:33;;;;;;;8.03;6.17;;;10.70;99.90;;;;;;5029189;28;21063;-67
2024/02/18 03:01:59;;;;;;;12.17;6.70;;;10.60;99.90;;;;;;5028786;28;20553;-65
2024/02/18 03:04:24;;;;;;;10.67;6.80;;;10.60;99.90;;;;;;5029923;28;20655;-67
2024/02/18 03:06:50;;;;;;;10.97;6.97;;;10.60;99.90;;;;;;5030536;28;20186;-65
2024/02/18 03:09:17;;;;;;;13.40;6.40;;;10.60;99.90;;;;;;5028027;28;20217;-65
2024/02/18 03:11:42;;;;;;;9.83;6.50;;;10.60;99.90;;;;;;5029910;28;20289;-66
2024/02/18 03:14:08;;;;;;;10.13;6.60;;;10.60;99.90;;;;;;5030200;28;21179;-66
2024/02/18 03:16:34;;;;;;;9.60;6.10;;;10.60;99.90;;;;;;5029505;28;20194;-66
2024/02/18 03:19:00;;;;;;;7.40;6.50;;;10.60;99.90;;;;;;5031032;28;20189;-66
2024/02/18 03:21:26;;;;;;;10.07;6.37;;;10.60;99.90;;;;;;5029531;28;20757;-67
2024/02/18 03:23:53;;;;;;;11.73;6.37;;;10.60;99.90;;;;;;5031371;28;20182;-67
2024/02/18 03:26:19;;;;;;;8.63;6.43;;;10.60;99.90;;;;;;5027841;28;20946;-64
2024/02/18 03:28:45;;;;;;;9.93;6.63;;;10.60;99.90;;;;;;5031149;28;20475;-65
2024/02/18 03:31:17;;;;;;;12.37;6.63;;;10.60;99.90;;;;;;5028627;28;20424;-67
2024/02/18 03:33:43;;;;;;;9.10;6.03;;;10.60;99.90;;;;;;5029953;28;20755;-65
2024/02/18 03:36:09;;;;;;;10.70;6.77;;;10.60;99.90;;;;;;5030181;28;20432;-66
2024/02/18 03:38:35;;;;;;;10.30;5.50;;;10.60;99.90;;;;;;5029463;28;20276;-66
2024/02/18 03:41:05;;;;;;;7.70;5.23;;;10.60;99.90;;;;;;5030218;28;20994;-66
2024/02/18 03:43:31;;;;;;;12.00;6.77;;;10.60;99.90;;;;;;5029213;28;20198;-67
2024/02/18 03:45:57;;;;;;;6.80;6.10;;;10.60;99.90;;;;;;5030636;28;20490;-65
2024/02/18 03:48:24;;;;;;;10.60;6.07;;;10.60;99.90;;;;;;5027400;28;20495;-67
2024/02/18 03:50:50;;;;;;;7.30;5.80;;;10.60;99.90;;;;;;5030041;28;20614;-66
2024/02/18 03:53:16;;;;;;;7.10;5.60;;;10.60;99.90;;;;;;5029136;28;20435;-66
2024/02/18 03:55:41;;;;;;;5.93;5.30;;;10.60;99.90;;;;;;5030133;28;20188;-66
2024/02/18 03:58:07;;;;;;;11.13;6.27;;;10.60;99.90;;;;;;5029977;28;20186;-67
2024/02/18 04:00:33;;;;;;;8.27;6.33;;;10.60;99.90;;;;;;5027814;28;20194;-66
2024/02/18 04:02:58;;;;;;;8.13;6.43;;;10.60;99.90;;;;;;5030568;28;20580;-65
2024/02/18 04:05:24;;;;;;;7.30;6.27;;;10.60;99.90;;;;;;5029272;28;20300;-66
2024/02/18 04:07:50;;;;;;;8.63;5.90;;;10.60;99.90;;;;;;5029733;28;20185;-66
2024/02/18 04:10:15;;;;;;;9.53;6.27;;;10.60;99.90;;;;;;5029474;28;20217;-66
2024/02/18 04:12:41;;;;;;;6.37;5.73;;;10.60;99.90;;;;;;5029163;28;20239;-64
2024/02/18 04:15:07;;;;;;;7.77;5.63;;;10.60;99.90;;;;;;5030170;28;20174;-67
2024/02/18 04:17:32;;;;;;;9.27;5.00;;;10.60;99.90;;;;;;5028490;28;20188;-67
2024/02/18 04:19:58;;;;;;;8.07;5.43;;;10.60;99.90;;;;;;5029670;28;21306;-65
2024/02/18 04:22:25;;;;;;;7.17;5.70;;;10.60;99.90;;;;;;5029904;28;21014;-65
2024/02/18 04:24:50;;;;;;;6.63;4.80;;;10.60;99.90;;;;;;5030607;28;20712;-67
2024/02/18 04:27:16;;;;;;;5.60;4.90;;;10.60;99.90;;;;;;5030266;28;20416;-67
2024/02/18 04:29:42;;;;;;;5.50;4.90;;;10.60;99.90;;;;;;5029529;28;20301;-64
2024/02/18 04:32:07;;;;;;;10.30;5.40;;;10.60;99.90;;;;;;5029548;28;20243;-66
2024/02/18 04:34:33;;;;;;;7.00;4.93;;;10.60;99.90;;;;;;5030267;28;20906;-64
2024/02/18 04:36:59;;;;;;;7.87;5.20;;;10.60;99.90;;;;;;5025042;28;20948;-64
2024/02/18 04:39:24;;;;;;;8.23;5.00;;;10.60;99.90;;;;;;5028302;28;20196;-67
2024/02/18 04:41:50;;;;;;;6.87;5.23;;;10.60;99.90;;;;;;5032050;28;20186;-64
2024/02/18 04:44:16;;;;;;;6.03;4.90;;;10.60;99.90;;;;;;5032662;28;20252;-65
2024/02/18 04:46:42;;;;;;;5.70;5.00;;;10.60;99.90;;;;;;5031612;28;20785;-65
2024/02/18 04:49:08;;;;;;;7.30;5.70;;;10.60;99.90;;;;;;5031686;28;20691;-64
2024/02/18 04:51:34;;;;;;;6.13;5.43;;;10.60;99.90;;;;;;5030890;28;20190;-67
2024/02/18 04:53:59;;;;;;;8.00;5.30;;;10.60;99.90;;;;;;5032066;28;20447;-65
2024/02/18 04:56:25;;;;;;;7.00;4.70;;;10.60;99.90;;;;;;5030289;28;20538;-64
2024/02/18 04:58:51;;;;;;;8.17;5.53;;;10.70;99.90;;;;;;5032782;28;20660;-65
2024/02/18 05:01:17;;;;;;;7.30;5.70;;;10.60;99.90;;;;;;5031696;28;20186;-66
2024/02/18 05:03:43;;;;;;;5.83;5.00;;;10.60;99.90;;;;;;5031811;28;20593;-67
2024/02/18 05:06:09;;;;;;;7.50;5.43;;;10.60;99.90;;;;;;5031102;28;20440;-64
2024/02/18 05:08:35;;;;;;;6.20;4.90;;;10.60;99.90;;;;;;5030857;28;20185;-66
2024/02/18 05:11:02;;;;;;;6.73;5.13;;;10.60;99.90;;;;;;5032487;28;20483;-65
2024/02/18 05:13:27;;;;;;;5.90;4.80;;;10.50;99.90;;;;;;5031505;28;20434;-67
2024/02/18 05:15:53;;;;;;;5.83;5.20;;;10.60;99.90;;;;;;5032033;28;20420;-67
2024/02/18 05:18:19;;;;;;;8.00;4.90;;;10.60;99.90;;;;;;5030037;28;20190;-67
2024/02/18 05:20:45;;;;;;;8.70;6.00;;;10.50;99.90;;;;;;5031478;28;20860;-65
2024/02/18 05:23:11;;;;;;;7.70;5.30;;;10.50;99.90;;;;;;5031431;28;20431;-65
2024/02/18 05:25:38;;;;;;;8.10;5.23;;;10.50;99.90;;;;;;5029108;28;20270;-64
2024/02/18 05:28:08;;;;;;;6.63;4.90;;;10.50;99.90;;;;;;5030114;28;20413;-66
2024/02/18 05:30:34;;;;;;;6.70;5.17;;;10.50;99.90;;;;;;5030983;28;20464;-64
2024/02/18 05:32:59;;;;;;;5.80;5.13;;;10.50;99.90;;;;;;5030787;28;20478;-66
2024/02/18 05:35:25;;;;;;;5.50;4.70;;;10.50;99.90;;;;;;5030205;28;20958;-68
2024/02/18 05:37:51;;;;;;;7.10;4.90;;;10.40;99.90;;;;;;5028847;28;20471;-66
2024/02/18 05:40:17;;;;;;;6.50;4.60;;;10.40;99.90;;;;;;5031086;28;20892;-64
2024/02/18 05:42:43;;;;;;;8.03;4.97;;;10.40;99.90;;;;;;5031473;28;20424;-66
2024/02/18 05:45:10;;;;;;;6.97;5.10;;;10.40;99.90;;;;;;5030522;28;21314;-67
2024/02/18 05:47:36;;;;;;;6.40;4.80;;;10.40;99.90;;;;;;5030861;28;20448;-66
2024/02/18 05:50:02;;;;;;;6.30;4.20;;;10.40;99.90;;;;;;5030620;28;20472;-66
2024/02/18 05:52:28;;;;;;;5.70;4.03;;;10.40;99.90;;;;;;5030942;28;20980;-67
2024/02/18 05:54:53;;;;;;;5.37;4.03;;;10.40;99.90;;;;;;5029001;28;20428;-65
2024/02/18 05:57:19;;;;;;;5.90;4.63;;;10.40;99.90;;;;;;5030533;28;20204;-64
2024/02/18 05:59:45;;;;;;;4.57;4.17;;;10.40;99.90;;;;;;5030119;28;20186;-64
2024/02/18 06:02:11;;;;;;;5.47;4.50;;;10.40;99.90;;;;;;5015840;28;20420;-65
2024/02/18 06:04:36;;;;;;;4.50;3.90;;;10.40;99.90;;;;;;5030404;28;20269;-66
2024/02/18 06:07:02;;;;;;;5.90;4.10;;;10.50;99.90;;;;;;5030775;28;20184;-67
2024/02/18 06:09:28;;;;;;;5.30;4.00;;;10.50;99.90;;;;;;5030415;28;20786;-65
2024/02/18 06:11:54;;;;;;;6.87;4.53;;;10.50;99.90;;;;;;5028097;28;20208;-68
2024/02/18 06:14:20;;;;;;;7.30;4.70;;;10.50;99.90;;;;;;5029046;28;20185;-65
2024/02/18 06:16:46;;;;;;;7.60;5.07;;;10.50;99.90;;;;;;5030007;28;20421;-65
2024/02/18 06:19:12;;;;;;;4.63;3.70;;;10.50;99.90;;;;;;5031877;28;20420;-67
2024/02/18 06:21:38;;;;;;;5.70;4.50;;;10.50;99.90;;;;;;5029664;28;20418;-68
2024/02/18 06:24:04;;;;;;;5.43;4.00;;;10.40;99.90;;;;;;5030211;28;20467;-65
2024/02/18 06:26:30;;;;;;;5.30;4.13;;;10.50;99.90;;;;;;5028422;28;20912;-68
2024/02/18 06:28:56;;;;;;;5.47;4.17;;;10.50;99.90;;;;;;5029989;28;20465;-65
2024/02/18 06:31:22;;;;;;;6.07;4.17;;;10.40;99.90;;;;;;5027873;28;20449;-68
2024/02/18 06:33:48;;;;;;;6.43;4.47;;;10.50;99.90;;;;;;5030578;28;20470;-66
2024/02/18 06:36:14;;;;;;;5.83;3.83;;;10.50;99.90;;;;;;5030763;28;20428;-67
2024/02/18 06:38:43;;;;;;;5.33;4.07;;;10.50;99.90;;;;;;5030670;28;21090;-67
2024/02/18 06:41:09;;;;;;;5.40;4.30;;;10.40;99.90;;;;;;5029583;28;21117;-65
2024/02/18 06:43:35;;;;;;;4.60;3.87;;;10.50;99.90;;;;;;5027951;28;20448;-67
2024/02/18 06:46:01;;;;;;;4.30;3.67;;;10.50;99.90;;;;;;5030773;28;20491;-67
2024/02/18 06:48:27;;;;;;;6.03;3.70;;;10.50;99.90;;;;;;5031059;28;21000;-65
2024/02/18 06:50:52;;;;;;;3.93;3.57;;;10.40;99.90;;;;;;5030913;28;20189;-68
2024/02/18 06:53:18;;;;;;;9.43;4.40;;;10.40;99.90;;;;;;5031881;28;20190;-65
2024/02/18 06:55:44;;;;;;;5.13;4.23;;;10.40;99.90;;;;;;5031435;28;20186;-67
2024/02/18 06:58:11;;;;;;;5.67;3.90;;;10.40;99.90;;;;;;5029921;28;20240;-65
2024/02/18 07:00:37;;;;;;;5.63;3.60;;;10.40;99.90;;;;;;5030859;28;20428;-65
2024/02/18 07:03:06;;;;;;;4.90;4.30;;;10.40;99.90;;;;;;5030088;28;20761;-67
2024/02/18 07:05:32;;;;;;;5.50;4.07;;;10.30;99.90;;;;;;5030960;28;20479;-66
2024/02/18 07:07:58;;;;;;;5.40;4.00;;;10.30;99.90;;;;;;5029116;28;20459;-66
2024/02/18 07:10:24;;;;;;;3.77;3.47;;;10.30;99.90;;;;;;5031181;28;20472;-67
2024/02/18 07:12:50;;;;;;;5.90;3.60;;;10.30;99.90;;;;;;5032252;28;20428;-66
2024/02/18 07:15:15;;;;;;;6.13;4.10;;;10.40;99.90;;;;;;5029918;28;20428;-66
2024/02/18 07:17:41;;;;;;;5.40;4.47;;;10.30;99.90;;;;;;5031384;28;20210;-66
2024/02/18 07:20:08;;;;;;;4.30;3.67;;;10.40;99.90;;;;;;5030337;28;20188;-68
2024/02/18 07:22:34;;;;;;;4.47;4.07;;;10.40;99.90;;;;;;5031072;28;20217;-66
2024/02/18 07:25:00;;;;;;;6.60;3.60;;;10.40;99.90;;;;;;5030921;28;20428;-67
2024/02/18 07:27:26;;;;;;;4.17;3.10;;;10.40;99.90;;;;;;5030456;28;20189;-65
2024/02/18 07:29:51;;;;;;;6.37;5.73;;;10.40;99.90;;;;;;5031253;28;20471;-68
2024/02/18 07:32:17;;;;;;;4.70;3.80;;;10.30;99.90;;;;;;5028413;28;20190;-67
2024/02/18 07:34:43;;;;;;;7.10;4.40;;;10.20;99.90;;;;;;5031182;28;20538;-65
2024/02/18 07:37:10;;;;;;;5.50;3.73;;;10.20;99.90;;;;;;5030423;28;20190;-64
2024/02/18 07:39:36;;;;;;;5.93;3.43;;;10.20;99.90;;;;;;5030517;28;20308;-65
2024/02/18 07:42:02;;;;;;;5.87;3.10;;;10.20;99.90;;;;;;5030456;28;20572;-66
2024/02/18 07:44:28;;;;;;;6.30;3.47;;;10.30;99.90;;;;;;5030601;28;20189;-64
2024/02/18 07:46:57;;;;;;;4.27;3.20;;;10.30;99.90;;;;;;5030258;28;20449;-65
2024/02/18 07:49:23;;;;;;;5.30;3.10;;;10.30;99.90;;;;;;5028377;28;20239;-68
2024/02/18 07:51:49;;;;;;;3.10;2.83;;;10.30;99.90;;;;;;5031018;28;20470;-68
2024/02/18 07:54:16;;;;;;;8.13;2.83;;;10.30;99.90;;;;;;5029307;28;20482;-66
2024/02/18 07:56:47;;;;;;;5.00;3.33;;;10.20;99.90;;;;;;5029735;28;20421;-65
2024/02/18 07:59:13;;;;;;;2.73;2.53;;;10.20;99.90;;;;;;5043804;28;20436;-67
2024/02/18 08:01:39;;;;;;;2.93;2.60;;;10.20;99.90;;;;;;5029132;28;20424;-67
2024/02/18 08:04:05;;;;;;;3.60;3.10;;;10.20;99.90;;;;;;5029804;28;20450;-65
2024/02/18 08:06:32;;;;;;;6.23;3.10;;;10.10;99.90;;;;;;5028907;28;20186;-66
2024/02/18 08:09:01;;;;;;;4.00;3.00;;;10.10;99.90;;;;;;5030571;28;20213;-66
2024/02/18 08:11:26;;;;;;;4.50;2.87;;;10.10;99.90;;;;;;5029597;28;20451;-65
2024/02/18 08:13:52;;;;;;;6.63;3.20;;;10.00;99.90;;;;;;5033007;28;21136;-67
2024/02/18 08:16:19;;;;;;;4.97;3.00;;;10.00;99.90;;;;;;5033293;28;21003;-67
2024/02/18 08:18:45;;;;;;;5.23;3.10;;;9.90;99.90;;;;;;5034930;28;20174;-66
2024/02/18 08:21:11;;;;;;;4.70;2.90;;;9.90;99.90;;;;;;5032666;28;20467;-68
2024/02/18 08:23:37;;;;;;;6.53;3.30;;;9.80;99.90;;;;;;5034070;28;20420;-65
2024/02/18 08:26:03;;;;;;;3.17;2.73;;;9.70;99.90;;;;;;5034024;28;20187;-64
2024/02/18 08:28:29;;;;;;;6.13;2.80;;;9.80;99.90;;;;;;5034274;28;20440;-64
2024/02/18 08:30:56;;;;;;;6.20;3.73;;;9.80;99.90;;;;;;5031079;28;20501;-66
2024/02/18 08:33:22;;;;;;;3.60;2.67;;;9.80;99.90;;;;;;5031286;28;20423;-67
2024/02/18 08:35:49;;;;;;;3.77;2.50;;;9.80;99.90;;;;;;5032935;28;20425;-68
2024/02/18 08:38:15;;;;;;;6.53;4.43;;;9.80;99.90;;;;;;5031849;28;20439;-65
2024/02/18 08:40:41;;;;;;;4.03;2.87;;;9.80;99.90;;;;;;5030914;28;20435;-68
2024/02/18 08:43:07;;;;;;;5.10;3.00;;;9.90;99.90;;;;;;5031981;28;20429;-67
2024/02/18 08:45:33;;;;;;;4.30;3.30;;;9.90;99.90;;;;;;5033435;28;20181;-65
2024/02/18 08:47:59;;;;;;;5.03;3.13;;;9.90;99.90;;;;;;5032740;28;20486;-64
2024/02/18 08:50:26;;;;;;;5.23;4.23;;;9.90;99.90;;;;;;5030652;28;20319;-68
2024/02/18 08:52:52;;;;;;;3.67;2.80;;;9.80;99.90;;;;;;5032582;28;20476;-67
2024/02/18 08:55:17;;;;;;;6.80;3.63;;;9.80;99.90;;;;;;5031440;28;20432;-67
2024/02/18 08:57:43;;;;;;;5.77;3.70;;;9.60;99.90;;;;;;5032768;28;20428;-66
2024/02/18 09:00:10;;;;;;;4.70;3.30;;;9.60;99.90;;;;;;5031604;28;20428;-66
2024/02/18 09:02:36;;;;;;;5.50;3.40;;;9.70;99.90;;;;;;5032979;28;20174;-65
2024/02/18 09:05:02;;;;;;;4.80;3.37;;;9.80;99.90;;;;;;5029976;28;20467;-66
2024/02/18 09:07:30;;;;;;;4.60;3.27;;;9.80;99.90;;;;;;5027907;28;21037;-67
2024/02/18 09:09:56;;;;;;;6.07;3.23;;;9.80;99.90;;;;;;5031031;28;20301;-67
2024/02/18 09:12:22;;;;;;;5.83;3.40;;;9.70;99.90;;;;;;5029665;28;20539;-67
2024/02/18 09:14:47;;;;;;;4.40;2.93;;;9.70;99.90;;;;;;5032093;28;20185;-66
2024/02/18 09:17:14;;;;;;;4.80;3.30;;;9.70;99.90;;;;;;5029243;28;20444;-67
2024/02/18 09:19:39;;;;;;;4.57;3.37;;;9.60;99.90;;;;;;5028585;28;20196;-66
2024/02/18 09:22:05;;;;;;;6.17;4.10;;;9.60;99.90;;;;;;5029788;28;21412;-67
2024/02/18 09:24:31;;;;;;;5.30;3.67;;;9.60;99.90;;;;;;5029867;28;20239;-67
2024/02/18 09:26:57;;;;;;;5.70;3.87;;;9.60;99.90;;;;;;5060838;28;20793;-65
2024/02/18 09:29:23;;;;;;;3.43;3.00;;;9.70;99.90;;;;;;5030028;28;20505;-67
2024/02/18 09:31:48;;;;;;;7.43;3.43;;;9.70;99.90;;;;;;5027045;28;20272;-66
2024/02/18 09:34:15;;;;;;;4.23;3.17;;;9.70;99.90;;;;;;5030470;28;20186;-67
2024/02/18 09:36:40;;;;;;;5.23;3.37;;;9.80;99.90;;;;;;5029506;28;20204;-67
2024/02/18 09:39:06;;;;;;;6.60;3.33;;;9.80;99.90;;;;;;5032081;28;20430;-67
2024/02/18 09:41:32;;;;;;;3.83;2.90;;;9.80;99.90;;;;;;5031276;28;20186;-68
2024/02/18 09:44:06;;;;;;;5.10;3.73;;;9.80;99.90;;;;;;5032125;28;20185;-64
2024/02/18 09:46:36;;;;;;;4.23;3.47;;;9.80;99.90;;;;;;5028231;28;20456;-68
2024/02/18 09:49:05;;;;;;;4.93;3.07;;;9.70;99.90;;;;;;5030364;28;20465;-67
2024/02/18 09:51:32;;;;;;;5.13;3.37;;;9.80;99.90;;;;;;5030244;28;20580;-67
2024/02/18 09:54:00;;;;;;;4.67;3.10;;;9.80;99.90;;;;;;5031079;28;20440;-67
2024/02/18 09:56:27;;;;;;;5.73;3.27;;;9.90;99.90;;;;;;5029930;28;20433;-65
2024/02/18 09:58:54;;;;;;;4.90;2.87;;;9.90;99.90;;;;;;5031509;28;20794;-65
2024/02/18 10:01:21;;;;;;;4.50;2.90;;;10.00;99.90;;;;;;5030142;28;20425;-65
2024/02/18 10:03:48;;;;;;;5.13;4.07;;;10.00;99.90;;;;;;5028720;28;20787;-65
2024/02/18 10:06:15;;;;;;;40.50;4.17;;;10.00;99.90;;;;;;5029570;28;20469;-67
2024/02/18 10:08:51;;;;;;;3.47;2.93;;;10.00;99.90;;;;;;5032261;28;20424;-65
2024/02/18 10:11:21;;;;;;;3.40;3.10;;;9.90;99.90;;;;;;5031108;28;20421;-68
2024/02/18 10:13:47;;;;;;;2.73;2.43;;;9.90;99.90;;;;;;5031680;28;20421;-65
2024/02/18 10:16:15;;;;;;;4.27;3.00;;;9.80;99.90;;;;;;5027399;28;20523;-68
2024/02/18 10:18:43;;;;;;;5.57;3.20;;;9.70;99.90;;;;;;5031986;28;20776;-67
2024/02/18 10:21:11;;;;;;;6.03;3.00;;;9.70;99.90;;;;;;5031098;28;20444;-65
2024/02/18 10:23:40;;;;;;;6.00;3.10;;;9.60;99.90;;;;;;5030883;28;20440;-68
2024/02/18 10:26:09;;;;;;;3.40;3.10;;;9.70;99.90;;;;;;5025937;28;20547;-67
2024/02/18 10:28:41;;;;;;;3.00;2.70;;;9.60;99.90;;;;;;5029779;28;20429;-71
2024/02/18 10:31:07;;;;;;;3.27;2.60;;;9.70;99.90;;;;;;5027687;28;20437;-71
2024/02/18 10:33:37;;;;;;;4.83;3.07;;;9.70;99.90;;;;;;5028176;28;20421;-72
2024/02/18 10:36:08;;;;;;;6.73;2.90;;;9.70;99.90;;;;;;5027664;28;20417;-66
2024/02/18 10:38:38;;;;;;;4.33;3.17;;;9.60;99.90;;;;;;5027943;28;20464;-68
2024/02/18 10:41:10;;;;;;;4.50;3.30;;;9.70;99.90;;;;;;5028377;28;20425;-69
2024/02/18 10:44:00;;;;;;;4.10;2.57;;;9.60;99.90;;;;;;5029427;28;20487;-70
2024/02/18 10:46:29;;;;;;;3.43;2.70;;;9.60;99.90;;;;;;5030229;28;20456;-68
2024/02/18 10:49:24;;;;;;;4.53;2.43;;;9.70;99.90;;;;;;5031554;28;21021;-67
2024/02/18 10:52:00;;;;;;;5.40;3.93;;;9.80;99.90;;;;;;5031059;28;20515;-68
2024/02/18 10:54:46;;;;;;;3.00;2.40;;;9.80;99.90;;;;;;5031285;28;21805;-67
2024/02/18 10:57:12;;;;;;;4.33;2.97;;;9.90;99.90;;;;;;5031597;28;20424;-68
2024/02/18 11:00:02;;;;;;;4.93;3.10;;;9.90;99.90;;;;;;5030660;28;21129;-68
2024/02/18 11:02:49;;;;;;;3.80;2.80;;;9.80;99.90;;;;;;5030298;28;20456;-66
2024/02/18 11:05:16;;;;;;;6.13;3.00;;;9.90;99.90;;;;;;5030746;28;21273;-67
2024/02/18 11:07:43;;;;;;;4.70;2.93;;;9.90;99.90;;;;;;5030591;28;20432;-70
2024/02/18 11:10:10;;;;;;;2.73;2.53;;;9.90;99.90;;;;;;5030642;28;20463;-67
2024/02/18 11:12:37;;;;;;;3.93;2.73;;;10.00;99.90;;;;;;5030865;28;20460;-68
2024/02/18 11:15:10;;;;;;;4.97;2.60;;;10.00;99.90;;;;;;5030500;28;20479;-69
2024/02/18 11:17:36;;;;;;;5.60;2.63;;;10.00;99.90;;;;;;5029668;28;20925;-70
2024/02/18 11:20:02;;;;;;;4.03;2.77;;;10.00;99.90;;;;;;5031481;28;20453;-71
2024/02/18 11:22:29;;;;;;;4.43;2.90;;;10.10;99.90;;;;;;5030477;28;20440;-68
2024/02/18 11:24:55;;;;;;;2.53;2.33;;;10.10;99.90;;;;;;5031195;28;20429;-68
2024/02/18 11:27:21;;;;;;;5.20;2.77;;;10.00;99.90;;;;;;5030775;28;20433;-73
2024/02/18 11:29:50;;;;;;;4.33;3.00;;;9.90;99.90;;;;;;5030869;28;20468;-67
2024/02/18 11:32:19;;;;;;;4.23;2.63;;;9.90;99.90;;;;;;5028513;28;20181;-72
2024/02/18 11:34:46;;;;;;;4.83;2.70;;;9.80;99.90;;;;;;5030213;28;20436;-66
2024/02/18 11:37:32;;;;;;;2.93;2.40;;;9.70;99.90;;;;;;5030955;28;20440;-69
2024/02/18 11:40:11;;;;;;;6.20;3.17;;;9.80;99.90;;;;;;5031186;28;20433;-71
2024/02/18 11:42:38;;;;;;;2.67;2.43;;;9.90;99.90;;;;;;5030401;28;20438;-69
2024/02/18 11:45:10;;;;;;;2.43;2.23;;;9.90;99.90;;;;;;5015028;28;20472;-66
2024/02/18 11:47:37;;;;;;;5.90;2.43;;;10.00;99.90;;;;;;5044996;28;20455;-70
2024/02/18 11:50:04;;;;;;;5.17;3.00;;;10.10;99.90;;;;;;5030948;28;20584;-70
2024/02/18 11:52:30;;;;;;;3.97;2.67;;;10.10;99.90;;;;;;5031361;28;20430;-71
2024/02/18 11:54:56;;;;;;;6.27;3.03;;;10.10;99.90;;;;;;5031021;28;21083;-65
2024/02/18 11:57:22;;;;;;;11.43;3.57;;;10.10;99.90;;;;;;5030708;28;20425;-71
2024/02/18 11:59:48;;;;;;;5.90;3.50;;;10.20;99.90;;;;;;5030658;28;20451;-67
2024/02/18 12:02:18;;;;;;;8.17;3.07;;;10.20;99.90;;;;;;5029727;28;20541;-71
2024/02/18 12:04:43;;;;;;;4.10;3.10;;;10.20;99.90;;;;;;5029953;28;20558;-67
2024/02/18 12:07:10;;;;;;;5.37;3.20;;;10.20;99.90;;;;;;5029823;28;20433;-67
2024/02/18 12:09:36;;;;;;;7.13;3.27;;;10.30;99.90;;;;;;5030870;28;20467;-71
2024/02/18 12:12:02;;;;;;;3.40;2.77;;;10.20;99.90;;;;;;5029783;28;20475;-71
2024/02/18 12:14:29;;;;;;;4.80;2.40;;;10.10;99.90;;;;;;5031387;28;20536;-68
2024/02/18 12:16:55;;;;;;;8.63;3.00;;;10.10;99.90;;;;;;5028912;28;20463;-73
2024/02/18 12:19:21;;;;;;;4.87;3.23;;;10.10;99.90;;;;;;5031027;28;20773;-70
2024/02/18 12:21:58;;;;;;;3.57;2.77;;;10.10;99.90;;;;;;5029692;28;20417;-67
2024/02/18 12:24:24;;;;;;;8.87;3.87;;;10.00;99.90;;;;;;5029347;28;20289;-68
2024/02/18 12:26:50;;;;;;;5.63;2.70;;;10.00;99.90;;;;;;5029728;28;20435;-68
2024/02/18 12:29:16;;;;;;;7.63;3.23;;;10.00;99.90;;;;;;5030402;28;20464;-66
2024/02/18 12:31:42;;;;;;;4.27;3.13;;;10.00;99.90;;;;;;5029059;28;20282;-68
2024/02/18 12:34:08;;;;;;;5.30;3.30;;;10.00;99.90;;;;;;5030424;28;20213;-70
2024/02/18 12:36:34;;;;;;;5.33;3.23;;;9.90;99.90;;;;;;5030724;28;20981;-68
2024/02/18 12:39:00;;;;;;;6.90;3.10;;;9.80;99.90;;;;;;5029453;28;20429;-71
2024/02/18 12:41:26;;;;;;;4.23;2.73;;;9.70;99.90;;;;;;5030089;28;20930;-70
2024/02/18 12:43:51;;;;;;;2.40;2.20;;;9.70;99.90;;;;;;5029634;28;20182;-68
2024/02/18 12:46:17;;;;;;;3.80;3.10;;;9.60;99.90;;;;;;5029753;28;20197;-70